Terminal Aerodrome Forecast
Issued by NWS

Home | Current Version | Previous Version | Text Only | Print | Product List | Glossary On
Versions: 1 2 3 4 5 6 7 8 9 10 11 12 13 14 15 16 17 18 19 20 21 22 23 24 25 26
000
FTUS45 KGJT 211358 AAA
TAFTEX
TAF AMD
KTEX 211358Z 2114/2212 13008KT P6SM VCSH BKN120
     FM211600 14007KT P6SM VCSH SCT050 BKN070
     FM211900 20007KT P6SM VCTS SCT060CB BKN100
     FM220100 21008KT P6SM VCTS SCT030CB BKN060
     FM220600 16005KT P6SM VCSH SCT030 BKN060
      AMD NOT SKED=

USA.gov is the U.S. government's official web portal to all federal, state and local government web resources and services.